createdAt,value
2017-05-08T00:00:45.491Z,18.87
2017-05-08T00:01:58.282Z,18.86
2017-05-08T00:03:11.079Z,18.79
2017-05-08T00:04:23.871Z,18.93
2017-05-08T00:05:36.656Z,18.87
2017-05-08T00:06:49.478Z,18.9
2017-05-08T00:08:02.263Z,18.91
2017-05-08T00:09:14.082Z,18.9
2017-05-08T00:10:26.864Z,18.94
2017-05-08T00:11:39.644Z,18.94
2017-05-08T00:12:52.254Z,18.94
2017-05-08T00:14:05.037Z,18.96
2017-05-08T00:15:17.342Z,18.9
2017-05-08T00:16:30.123Z,18.96
2017-05-08T00:17:42.428Z,18.93
2017-05-08T00:18:55.230Z,18.99
2017-05-08T00:20:08.010Z,19.02
2017-05-08T00:21:19.831Z,18.96
2017-05-08T00:22:32.136Z,18.97
2017-05-08T00:23:44.918Z,18.94
2017-05-08T00:24:57.704Z,18.91
2017-05-08T00:26:10.008Z,18.96
2017-05-08T00:27:22.791Z,18.96
2017-05-08T00:28:35.769Z,18.99
2017-05-08T00:29:48.553Z,19.02
2017-05-08T00:31:01.338Z,18.99
2017-05-08T00:32:14.126Z,18.97
2017-05-08T00:33:26.428Z,18.94
2017-05-08T00:34:39.413Z,18.97
2017-05-08T00:35:52.203Z,18.94
2017-05-08T00:37:04.992Z,18.99
2017-05-08T00:38:17.771Z,19.02
2017-05-08T00:39:30.377Z,19.05
2017-05-08T00:40:42.676Z,19.05
2017-05-08T00:41:55.460Z,19.02
2017-05-08T00:43:08.244Z,18.94
2017-05-08T00:44:20.066Z,19.02
2017-05-08T00:45:33.055Z,18.99
2017-05-08T00:46:44.874Z,18.97
2017-05-08T00:47:57.662Z,19.02
2017-05-08T00:49:09.967Z,18.99
2017-05-08T00:50:22.281Z,18.99
2017-05-08T00:51:35.073Z,18.94
2017-05-08T00:52:47.873Z,19.01
2017-05-08T00:54:00.667Z,19.06
2017-05-08T00:55:12.493Z,19.05
2017-05-08T00:56:25.016Z,19.07
2017-05-08T00:57:37.842Z,19.05
2017-05-08T00:58:50.745Z,19.09
2017-05-08T01:00:03.720Z,19.07
2017-05-08T01:01:16.301Z,19.06
2017-05-08T01:02:28.684Z,19.12
2017-05-08T01:03:41.618Z,19.16
2017-05-08T01:04:54.616Z,19.09
2017-05-08T01:06:07.449Z,19.21
2017-05-08T01:07:20.253Z,19.15
2017-05-08T01:08:32.605Z,19.15
2017-05-08T01:09:45.483Z,19.15
2017-05-08T01:10:58.324Z,19.17
2017-05-08T01:12:11.160Z,19.15
2017-05-08T01:13:24.054Z,19.15
2017-05-08T01:14:37.002Z,19.16
2017-05-08T01:15:50.063Z,19.16
2017-05-08T01:17:03.155Z,19.16
2017-05-08T01:18:16.033Z,19.16
2017-05-08T01:19:28.460Z,19.13
2017-05-08T01:20:41.426Z,19.15
2017-05-08T01:21:54.455Z,19.15
2017-05-08T01:23:06.714Z,19.13
2017-05-08T01:24:19.271Z,19.15
2017-05-08T01:25:31.911Z,19.01
2017-05-08T01:26:45.034Z,19.1
2017-05-08T01:27:57.914Z,19.01
2017-05-08T01:29:11.579Z,19.13
2017-05-08T01:30:24.532Z,18.97
2017-05-08T01:31:36.936Z,19.01
2017-05-08T01:32:49.809Z,19.01
2017-05-08T01:34:03.109Z,18.97
2017-05-08T01:35:16.333Z,19.01
2017-05-08T01:36:29.661Z,18.97
2017-05-08T01:37:42.793Z,18.91
2017-05-08T01:38:55.576Z,18.96
2017-05-08T01:40:08.363Z,18.97
2017-05-08T01:41:21.153Z,18.96
2017-05-08T01:42:33.951Z,19.02
2017-05-08T01:43:46.253Z,18.97
2017-05-08T01:44:59.039Z,19.06
2017-05-08T01:46:11.825Z,19.05
2017-05-08T01:47:24.128Z,18.99
2017-05-08T01:48:36.911Z,19.12
2017-05-08T01:49:49.690Z,19.09
2017-05-08T01:51:02.678Z,19.06
2017-05-08T01:52:15.460Z,19.02
2017-05-08T01:53:28.243Z,18.99
2017-05-08T01:54:41.027Z,19.06
2017-05-08T01:55:53.811Z,19.05
2017-05-08T01:57:06.593Z,19.01
2017-05-08T01:58:19.375Z,19.1
2017-05-08T01:59:32.161Z,19.02
2017-05-08T02:00:44.467Z,18.99
2017-05-08T02:01:57.250Z,19.12
2017-05-08T02:03:10.035Z,19.1
2017-05-08T02:04:22.335Z,19.09
2017-05-08T02:05:35.122Z,19.1
2017-05-08T02:06:48.109Z,18.99
2017-05-08T02:08:00.893Z,18.97
2017-05-08T02:09:13.677Z,18.97
2017-05-08T02:10:26.459Z,18.94
2017-05-08T02:11:39.243Z,18.94
2017-05-08T02:12:52.233Z,19.02
2017-05-08T02:14:05.023Z,19.01
2017-05-08T02:15:17.810Z,18.99
2017-05-08T02:16:30.594Z,19.12
2017-05-08T02:17:43.374Z,19.01
2017-05-08T02:18:55.678Z,19.01
2017-05-08T02:20:08.463Z,19.07
2017-05-08T02:21:20.764Z,18.97
2017-05-08T02:22:33.548Z,19.01
2017-05-08T02:23:46.630Z,18.91
2017-05-08T02:24:59.410Z,18.96
2017-05-08T02:26:12.190Z,18.97
2017-05-08T02:27:24.994Z,19.06
2017-05-08T02:28:37.977Z,19.01
2017-05-08T02:29:50.280Z,18.96
2017-05-08T02:31:02.579Z,18.99
2017-05-08T02:32:15.360Z,18.94
2017-05-08T02:33:28.144Z,19.01
2017-05-08T02:34:39.967Z,19.01
2017-05-08T02:35:52.753Z,18.96
2017-05-08T02:37:05.536Z,18.96
2017-05-08T02:38:17.842Z,18.96
2017-05-08T02:39:30.937Z,19.01
2017-05-08T02:40:43.724Z,18.91
2017-05-08T02:41:56.506Z,18.96
2017-05-08T02:43:09.293Z,18.94
2017-05-08T02:44:21.589Z,18.97
2017-05-08T02:45:34.378Z,18.93
2017-05-08T02:46:47.164Z,18.93
2017-05-08T02:47:59.461Z,18.97
2017-05-08T02:49:11.772Z,18.94
2017-05-08T02:50:24.755Z,18.97
2017-05-08T02:51:37.539Z,18.96
2017-05-08T02:52:50.321Z,18.96
2017-05-08T02:54:02.621Z,19.01
2017-05-08T02:55:15.408Z,18.91
2017-05-08T02:56:28.197Z,18.91
2017-05-08T02:57:40.980Z,18.96
2017-05-08T02:58:53.762Z,18.83
2017-05-08T03:00:06.602Z,18.9
2017-05-08T03:01:19.386Z,18.86
2017-05-08T03:02:32.183Z,18.79
2017-05-08T03:03:44.972Z,18.89
2017-05-08T03:04:57.759Z,18.72
2017-05-08T03:06:10.547Z,18.79
2017-05-08T03:07:23.329Z,18.82
2017-05-08T03:08:36.150Z,18.82
2017-05-08T03:09:48.939Z,18.79
2017-05-08T03:11:01.732Z,18.78
2017-05-08T03:12:14.238Z,18.68
2017-05-08T03:13:27.022Z,18.72
2017-05-08T03:14:39.323Z,18.66
2017-05-08T03:15:52.110Z,18.68
2017-05-08T03:17:04.901Z,18.71
2017-05-08T03:18:17.241Z,18.69
2017-05-08T03:19:30.024Z,18.74
2017-05-08T03:20:42.810Z,18.68
2017-05-08T03:21:55.594Z,18.68
2017-05-08T03:23:08.583Z,18.65
2017-05-08T03:24:21.365Z,18.72
2017-05-08T03:25:33.676Z,18.75
2017-05-08T03:26:45.975Z,18.68
2017-05-08T03:27:58.274Z,18.78
2017-05-08T03:29:11.076Z,18.72
2017-05-08T03:30:23.888Z,18.71
2017-05-08T03:31:36.189Z,18.65
2017-05-08T03:32:48.980Z,18.65
2017-05-08T03:34:01.486Z,18.69
2017-05-08T03:35:13.790Z,18.68
2017-05-08T03:36:26.579Z,18.71
2017-05-08T03:37:38.877Z,18.65
2017-05-08T03:38:51.667Z,18.69
2017-05-08T03:40:04.458Z,18.62
2017-05-08T03:41:16.281Z,18.68
2017-05-08T03:42:28.584Z,18.62
2017-05-08T03:43:41.371Z,18.57
2017-05-08T03:44:54.157Z,18.5
2017-05-08T03:46:06.944Z,18.46
2017-05-08T03:47:19.724Z,18.47
2017-05-08T03:48:32.025Z,18.42
2017-05-08T03:49:44.810Z,18.39
2017-05-08T03:50:57.892Z,18.41
2017-05-08T03:52:10.193Z,18.29
2017-05-08T03:53:22.976Z,18.34
2017-05-08T03:54:35.276Z,18.34
2017-05-08T03:55:48.056Z,18.38
2017-05-08T03:57:00.840Z,18.26
2017-05-08T03:58:13.632Z,18.21
2017-05-08T03:59:26.415Z,18.23
2017-05-08T04:00:39.196Z,18.23
2017-05-08T04:01:52.285Z,18.17
2017-05-08T04:03:05.070Z,18.19
2017-05-08T04:04:17.374Z,18.14
2017-05-08T04:05:30.156Z,18.13
2017-05-08T04:06:42.933Z,18.14
2017-05-08T04:07:55.234Z,18.17
2017-05-08T04:09:08.021Z,18.25
2017-05-08T04:10:20.329Z,18.2
2017-05-08T04:11:33.109Z,18.19
2017-05-08T04:12:46.099Z,18.2
2017-05-08T04:13:58.403Z,18.2
2017-05-08T04:15:11.201Z,18.13
2017-05-08T04:16:23.984Z,18.25
2017-05-08T04:17:36.766Z,18.2
2017-05-08T04:18:49.068Z,18.31
2017-05-08T04:20:01.847Z,18.26
2017-05-08T04:21:14.631Z,18.39
2017-05-08T04:22:27.418Z,18.36
2017-05-08T04:23:40.203Z,18.36
2017-05-08T04:24:52.985Z,18.38
2017-05-08T04:26:05.290Z,18.41
2017-05-08T04:27:17.112Z,18.32
2017-05-08T04:28:30.103Z,18.35
2017-05-08T04:29:42.891Z,18.32
2017-05-08T04:30:55.673Z,18.38
2017-05-08T04:32:08.455Z,18.29
2017-05-08T04:33:20.755Z,18.36
2017-05-08T04:34:33.573Z,18.35
2017-05-08T04:35:46.354Z,18.36
2017-05-08T04:36:59.133Z,18.34
2017-05-08T04:38:11.433Z,18.36
2017-05-08T04:39:24.221Z,18.35
2017-05-08T04:40:37.013Z,18.36
2017-05-08T04:41:49.804Z,18.36
2017-05-08T04:43:02.589Z,18.35
2017-05-08T04:44:14.887Z,18.34
2017-05-08T04:45:27.974Z,18.41
2017-05-08T04:46:40.756Z,18.39
2017-05-08T04:47:53.062Z,18.32
2017-05-08T04:49:05.366Z,18.36
2017-05-08T04:50:17.667Z,18.38
2017-05-08T04:51:30.482Z,18.39
2017-05-08T04:52:43.265Z,18.36
2017-05-08T04:53:56.049Z,18.38
2017-05-08T04:55:08.837Z,18.42
2017-05-08T04:56:21.821Z,18.39
2017-05-08T04:57:34.602Z,18.39
2017-05-08T04:58:47.390Z,18.32
2017-05-08T04:59:59.690Z,18.49
2017-05-08T05:01:12.672Z,18.42
2017-05-08T05:02:25.450Z,18.39
2017-05-08T05:03:37.752Z,18.36
2017-05-08T05:04:50.535Z,18.42
2017-05-08T05:06:03.317Z,18.41
2017-05-08T05:07:15.447Z,18.36
2017-05-08T05:08:28.233Z,18.34
2017-05-08T05:09:40.533Z,18.36
2017-05-08T05:10:53.317Z,18.36
2017-05-08T05:12:06.311Z,18.36
2017-05-08T05:13:19.106Z,18.44
2017-05-08T05:14:31.888Z,18.38
2017-05-08T05:15:44.668Z,18.39
2017-05-08T05:16:56.966Z,18.38
2017-05-08T05:18:10.058Z,18.38
2017-05-08T05:19:22.372Z,18.36
2017-05-08T05:20:35.187Z,18.31
2017-05-08T05:21:47.977Z,18.34
2017-05-08T05:23:01.069Z,18.32
2017-05-08T05:24:12.899Z,18.34
2017-05-08T05:25:25.304Z,18.35
2017-05-08T05:26:38.104Z,18.36
2017-05-08T05:27:50.902Z,18.31
2017-05-08T05:29:03.216Z,18.32
2017-05-08T05:30:15.053Z,18.32
2017-05-08T05:31:27.851Z,18.35
2017-05-08T05:32:40.640Z,18.32
2017-05-08T05:33:53.435Z,18.23
2017-05-08T05:35:05.751Z,18.34
2017-05-08T05:36:18.058Z,18.28
2017-05-08T05:37:30.880Z,18.35
2017-05-08T05:38:43.678Z,18.36
2017-05-08T05:39:55.713Z,18.28
2017-05-08T05:41:08.513Z,18.25
2017-05-08T05:42:20.342Z,18.25
2017-05-08T05:43:32.655Z,18.23
2017-05-08T05:44:45.170Z,18.25
2017-05-08T05:45:57.965Z,18.31
2017-05-08T05:47:10.271Z,18.19
2017-05-08T05:48:22.586Z,18.29
2017-05-08T05:49:35.379Z,18.29
2017-05-08T05:50:48.469Z,18.21
2017-05-08T05:52:01.260Z,18.19
2017-05-08T05:53:13.570Z,18.25
2017-05-08T05:54:26.357Z,18.25
2017-05-08T05:55:39.354Z,18.2
2017-05-08T05:56:52.154Z,18.21
2017-05-08T05:58:04.468Z,18.2
2017-05-08T05:59:17.269Z,18.19
2017-05-08T06:00:30.064Z,18.21
2017-05-08T06:01:42.682Z,18.25
2017-05-08T06:02:55.485Z,18.28
2017-05-08T06:04:08.276Z,18.17
2017-05-08T06:05:20.582Z,18.16
2017-05-08T06:06:32.881Z,18.23
2017-05-08T06:07:45.185Z,18.14
2017-05-08T06:08:57.980Z,18.13
2017-05-08T06:10:10.764Z,18.16
2017-05-08T06:11:22.591Z,18.14
2017-05-08T06:12:35.673Z,18.1
2017-05-08T06:13:48.458Z,18.11
2017-05-08T06:15:01.242Z,18.07
2017-05-08T06:16:13.537Z,18.07
2017-05-08T06:17:25.832Z,18.02
2017-05-08T06:18:38.621Z,18.02
2017-05-08T06:19:50.442Z,18.02
2017-05-08T06:21:03.228Z,18.02
2017-05-08T06:22:15.052Z,18.02
2017-05-08T06:23:28.151Z,17.98
2017-05-08T06:24:40.935Z,17.96
2017-05-08T06:25:53.233Z,17.99
2017-05-08T06:27:06.017Z,17.87
2017-05-08T06:28:18.807Z,18.01
2017-05-08T06:29:31.591Z,17.96
2017-05-08T06:30:44.371Z,17.92
2017-05-08T06:31:57.152Z,17.94
2017-05-08T06:33:09.930Z,18.04
2017-05-08T06:34:22.711Z,17.96
2017-05-08T06:35:35.497Z,17.95
2017-05-08T06:36:48.281Z,17.92
2017-05-08T06:38:01.069Z,18.04
2017-05-08T06:39:13.571Z,17.87
2017-05-08T06:40:26.349Z,17.87
2017-05-08T06:41:39.133Z,17.8
2017-05-08T06:42:51.913Z,17.86
2017-05-08T06:44:04.694Z,17.81
2017-05-08T06:45:17.499Z,17.86
2017-05-08T06:46:30.285Z,17.83
2017-05-08T06:47:43.063Z,17.77
2017-05-08T06:48:55.364Z,17.71
2017-05-08T06:50:08.159Z,17.68
2017-05-08T06:51:20.961Z,17.71
2017-05-08T06:52:33.758Z,17.6
2017-05-08T06:53:46.536Z,17.58
2017-05-08T06:54:58.849Z,17.65
2017-05-08T06:56:11.449Z,17.63
2017-05-08T06:57:23.753Z,17.55
2017-05-08T06:58:36.541Z,17.53
2017-05-08T06:59:49.324Z,17.4
2017-05-08T07:01:02.413Z,17.45
2017-05-08T07:02:14.712Z,17.42
2017-05-08T07:03:27.503Z,17.4
2017-05-08T07:04:40.281Z,17.47
2017-05-08T07:05:53.063Z,17.49
2017-05-08T07:07:05.841Z,17.49
2017-05-08T07:08:18.135Z,17.49
2017-05-08T07:09:30.916Z,17.53
2017-05-08T07:10:43.702Z,17.54
2017-05-08T07:11:56.004Z,17.49
2017-05-08T07:13:08.784Z,17.58
2017-05-08T07:14:21.562Z,17.54
2017-05-08T07:15:34.374Z,17.54
2017-05-08T07:16:47.154Z,17.54
2017-05-08T07:17:59.461Z,17.63
2017-05-08T07:19:12.247Z,17.6
2017-05-08T07:20:25.026Z,17.54
2017-05-08T07:21:37.323Z,17.6
2017-05-08T07:22:50.407Z,17.6
2017-05-08T07:24:03.191Z,17.63
2017-05-08T07:25:15.973Z,17.51
2017-05-08T07:26:28.790Z,17.63
2017-05-08T07:27:41.086Z,17.6
2017-05-08T07:28:53.875Z,17.55
2017-05-08T07:30:06.664Z,17.55
2017-05-08T07:31:19.440Z,17.58
2017-05-08T07:32:32.231Z,17.58
2017-05-08T07:33:45.010Z,17.54
2017-05-08T07:34:56.824Z,17.53
2017-05-08T07:36:09.118Z,17.58
2017-05-08T07:37:21.900Z,17.57
2017-05-08T07:38:34.684Z,17.55
2017-05-08T07:39:46.983Z,17.55
2017-05-08T07:40:59.279Z,17.53
2017-05-08T07:42:12.064Z,17.54
2017-05-08T07:43:24.858Z,17.53
2017-05-08T07:44:37.638Z,17.47
2017-05-08T07:45:49.936Z,17.51
2017-05-08T07:47:01.750Z,17.51
2017-05-08T07:48:14.528Z,17.49
2017-05-08T07:49:26.822Z,17.47
2017-05-08T07:50:38.937Z,17.54
2017-05-08T07:51:51.718Z,17.51
2017-05-08T07:53:04.023Z,17.49
2017-05-08T07:54:16.801Z,17.57
2017-05-08T07:55:29.100Z,17.49
2017-05-08T07:56:41.880Z,17.53
2017-05-08T07:57:54.178Z,17.57
2017-05-08T07:59:06.480Z,17.55
2017-05-08T08:00:19.257Z,17.49
2017-05-08T08:01:32.036Z,17.49
2017-05-08T08:02:44.817Z,17.46
2017-05-08T08:03:56.151Z,17.54
2017-05-08T08:05:08.448Z,17.47
2017-05-08T08:06:21.429Z,17.49
2017-05-08T08:07:34.213Z,17.53
2017-05-08T08:08:46.995Z,17.49
2017-05-08T08:09:58.814Z,17.46
2017-05-08T08:11:11.595Z,17.53
2017-05-08T08:12:24.379Z,17.51
2017-05-08T08:13:37.162Z,17.46
2017-05-08T08:14:49.462Z,17.45
2017-05-08T08:16:01.762Z,17.54
2017-05-08T08:17:14.742Z,17.55
2017-05-08T08:18:26.561Z,17.54
2017-05-08T08:19:39.339Z,17.49
2017-05-08T08:20:52.130Z,17.51
2017-05-08T08:22:04.957Z,17.49
2017-05-08T08:23:17.747Z,17.47
2017-05-08T08:24:30.050Z,17.51
2017-05-08T08:25:42.846Z,17.46
2017-05-08T08:26:55.646Z,17.53
2017-05-08T08:28:08.446Z,17.47
2017-05-08T08:29:20.278Z,17.47
2017-05-08T08:30:33.080Z,17.49
2017-05-08T08:31:44.909Z,17.4
2017-05-08T08:32:57.219Z,17.46
2017-05-08T08:34:10.307Z,17.45
2017-05-08T08:35:22.615Z,17.45
2017-05-08T08:36:35.400Z,17.38
2017-05-08T08:37:47.714Z,17.43
2017-05-08T08:39:00.030Z,17.43
2017-05-08T08:40:12.818Z,17.35
2017-05-08T08:41:25.128Z,17.35
2017-05-08T08:42:37.922Z,17.4
2017-05-08T08:43:50.230Z,17.4
2017-05-08T08:45:02.535Z,17.3
2017-05-08T08:46:14.835Z,17.38
2017-05-08T08:47:27.625Z,17.27
2017-05-08T08:48:39.929Z,17.35
2017-05-08T08:49:52.425Z,17.32
2017-05-08T08:51:04.729Z,17.27
2017-05-08T08:52:17.024Z,17.21
2017-05-08T08:53:29.822Z,17.28
2017-05-08T08:54:41.641Z,17.32
2017-05-08T08:55:53.946Z,17.28
2017-05-08T08:57:06.738Z,17.28
2017-05-08T08:58:19.047Z,17.27
2017-05-08T08:59:31.832Z,17.32
2017-05-08T09:00:44.143Z,17.24
2017-05-08T09:01:56.644Z,17.38
2017-05-08T09:03:09.440Z,17.25
2017-05-08T09:04:22.262Z,17.27
2017-05-08T09:05:35.044Z,17.12
2017-05-08T09:06:46.858Z,17.17
2017-05-08T09:07:58.207Z,17.2
2017-05-08T09:09:10.995Z,17.21
2017-05-08T09:10:23.290Z,17.2
2017-05-08T09:11:36.070Z,17.18
2017-05-08T09:12:49.052Z,17.18
2017-05-08T09:14:00.895Z,17.18
2017-05-08T09:15:13.190Z,17.24
2017-05-08T09:16:25.485Z,17.22
2017-05-08T09:17:38.265Z,17.28
2017-05-08T09:18:50.572Z,17.21
2017-05-08T09:20:02.872Z,17.21
2017-05-08T09:21:15.684Z,17.21
2017-05-08T09:22:28.463Z,17.25
2017-05-08T09:23:41.244Z,17.32
2017-05-08T09:24:54.027Z,17.36
2017-05-08T09:26:05.848Z,17.36
2017-05-08T09:27:18.627Z,17.27
2017-05-08T09:28:31.716Z,17.35
2017-05-08T09:29:44.013Z,17.35
2017-05-08T09:30:55.834Z,17.33
2017-05-08T09:32:08.611Z,17.33
2017-05-08T09:33:20.910Z,17.25
2017-05-08T09:34:33.996Z,17.18
2017-05-08T09:35:45.814Z,17.28
2017-05-08T09:36:58.120Z,17.17
2017-05-08T09:38:09.933Z,17.2
2017-05-08T09:39:22.235Z,17.2
2017-05-08T09:40:34.535Z,17.22
2017-05-08T09:41:46.835Z,17.18
2017-05-08T09:42:58.653Z,17.14
2017-05-08T09:44:11.442Z,17.24
2017-05-08T09:45:24.222Z,17.18
2017-05-08T09:46:37.002Z,17.2
2017-05-08T09:47:49.782Z,17.24
2017-05-08T09:49:02.563Z,17.2
2017-05-08T09:50:15.160Z,17.15
2017-05-08T09:51:27.458Z,17.17
2017-05-08T09:52:39.273Z,17.21
2017-05-08T09:53:52.058Z,17.17
2017-05-08T09:55:04.352Z,17.18
2017-05-08T09:56:16.846Z,17.18
2017-05-08T09:57:29.151Z,17.2
2017-05-08T09:58:41.929Z,17.17
2017-05-08T09:59:54.224Z,17.27
2017-05-08T10:01:06.244Z,17.32
2017-05-08T10:02:18.539Z,17.2
2017-05-08T10:03:31.316Z,17.2
2017-05-08T10:04:44.100Z,17.17
2017-05-08T10:05:56.400Z,17.17
2017-05-08T10:07:09.000Z,17.05
2017-05-08T10:08:20.331Z,17.07
2017-05-08T10:09:33.110Z,17.03
2017-05-08T10:10:45.889Z,17.09
2017-05-08T10:11:58.383Z,17.03
2017-05-08T10:13:11.169Z,17.12
2017-05-08T10:14:23.946Z,17.1
2017-05-08T10:15:36.729Z,17.18
2017-05-08T10:16:49.023Z,17.2
2017-05-08T10:18:01.317Z,17.18
2017-05-08T10:19:14.108Z,17.2
2017-05-08T10:20:26.415Z,17.22
2017-05-08T10:21:38.714Z,17.18
2017-05-08T10:22:51.016Z,17.15
2017-05-08T10:24:03.793Z,17.1
2017-05-08T10:25:16.570Z,17.18
2017-05-08T10:26:29.388Z,17.18
2017-05-08T10:27:41.688Z,17.15
2017-05-08T10:28:54.183Z,17.18
2017-05-08T10:30:06.002Z,17.24
2017-05-08T10:31:18.297Z,17.2
2017-05-08T10:32:30.596Z,17.2
2017-05-08T10:33:42.891Z,17.18
2017-05-08T10:34:55.673Z,17.2
2017-05-08T10:36:07.985Z,17.17
2017-05-08T10:37:20.772Z,17.24
2017-05-08T10:38:33.562Z,17.17
2017-05-08T10:39:46.348Z,17.2
2017-05-08T10:40:58.656Z,17.22
2017-05-08T10:42:11.447Z,17.22
2017-05-08T10:43:24.232Z,17.24
2017-05-08T10:44:37.022Z,17.25
2017-05-08T10:45:49.814Z,17.32
2017-05-08T10:47:02.158Z,17.33
2017-05-08T10:48:13.995Z,17.28
2017-05-08T10:49:26.774Z,17.33
2017-05-08T10:50:38.601Z,17.38
2017-05-08T10:51:50.913Z,17.35
2017-05-08T10:53:03.701Z,17.33
2017-05-08T10:54:15.516Z,17.36
2017-05-08T10:55:27.824Z,17.47
2017-05-08T10:56:40.616Z,17.45
2017-05-08T10:57:52.928Z,17.46
2017-05-08T10:59:05.226Z,17.49
2017-05-08T11:00:17.525Z,17.47
2017-05-08T11:01:30.515Z,17.46
2017-05-08T11:02:42.827Z,17.55
2017-05-08T11:03:54.653Z,17.47
2017-05-08T11:05:07.433Z,17.62
2017-05-08T11:06:19.746Z,17.65
2017-05-08T11:07:32.057Z,17.6
2017-05-08T11:08:44.355Z,17.55
2017-05-08T11:09:55.690Z,17.73
2017-05-08T11:11:07.993Z,17.74
2017-05-08T11:12:20.785Z,17.77
2017-05-08T11:13:33.572Z,17.68
2017-05-08T11:14:45.871Z,17.74
2017-05-08T11:15:58.178Z,17.73
2017-05-08T11:17:10.971Z,17.79
2017-05-08T11:18:23.281Z,17.71
2017-05-08T11:19:35.100Z,17.74
2017-05-08T11:20:47.394Z,17.83
2017-05-08T11:21:59.691Z,17.84
2017-05-08T11:23:12.187Z,17.86
2017-05-08T11:24:24.491Z,17.95
2017-05-08T11:25:35.352Z,17.89
2017-05-08T11:26:48.138Z,18.09
2017-05-08T11:27:59.960Z,18.1
2017-05-08T11:29:12.265Z,18.14
2017-05-08T11:30:24.566Z,18.34
2017-05-08T11:31:37.346Z,18.42
2017-05-08T11:32:50.137Z,18.51
2017-05-08T11:34:02.436Z,18.68
2017-05-08T11:35:15.214Z,18.91
2017-05-08T11:36:27.510Z,18.9
2017-05-08T11:37:40.298Z,19.1
2017-05-08T11:38:53.092Z,19.28
2017-05-08T11:40:04.940Z,19.42
2017-05-08T11:41:17.728Z,19.67
2017-05-08T11:42:30.034Z,19.76
2017-05-08T11:43:41.863Z,19.86
2017-05-08T11:44:54.167Z,20.13
2017-05-08T11:46:05.505Z,20.2
2017-05-08T11:47:16.842Z,20.4
2017-05-08T11:48:29.152Z,20.53
2017-05-08T11:49:41.937Z,20.54
2017-05-08T11:50:54.240Z,20.71
2017-05-08T11:52:06.076Z,20.72
2017-05-08T11:53:18.859Z,20.87
2017-05-08T11:54:31.656Z,21.08
2017-05-08T11:55:43.997Z,21.19
2017-05-08T11:56:56.610Z,21.31
2017-05-08T11:58:08.917Z,21.36
2017-05-08T11:59:21.221Z,21.43
2017-05-08T12:00:33.050Z,21.63
2017-05-08T12:01:45.836Z,21.7
2017-05-08T12:02:58.141Z,21.81
2017-05-08T12:04:10.446Z,21.96
2017-05-08T12:05:22.762Z,22.08
2017-05-08T12:06:35.068Z,22.14
2017-05-08T12:07:46.406Z,22.29
2017-05-08T12:08:59.198Z,22.35
2017-05-08T12:10:11.984Z,22.31
2017-05-08T12:11:24.768Z,22.42
2017-05-08T12:12:37.554Z,22.41
2017-05-08T12:13:49.891Z,22.51
2017-05-08T12:15:02.192Z,22.69
2017-05-08T12:16:14.492Z,22.61
2017-05-08T12:17:26.825Z,22.46
2017-05-08T12:18:38.644Z,22.41
2017-05-08T12:19:50.956Z,22.26
2017-05-08T12:21:03.262Z,22.33
2017-05-08T12:22:16.049Z,22.33
2017-05-08T12:23:28.838Z,22.39
2017-05-08T12:24:41.622Z,22.42
2017-05-08T12:25:53.928Z,22.51
2017-05-08T12:27:06.718Z,22.29
2017-05-08T12:28:19.505Z,22.31
2017-05-08T12:29:32.292Z,22.36
2017-05-08T12:30:45.077Z,22.33
2017-05-08T12:31:57.865Z,22.6
2017-05-08T12:33:09.705Z,22.46
2017-05-08T12:34:22.004Z,22.46
2017-05-08T12:35:34.791Z,22.49
2017-05-08T12:36:47.096Z,22.64
2017-05-08T12:37:59.880Z,22.66
2017-05-08T12:39:11.619Z,22.78
2017-05-08T12:40:23.443Z,22.86
2017-05-08T12:41:36.237Z,22.99
2017-05-08T12:42:49.066Z,22.97
2017-05-08T12:44:01.387Z,22.99
2017-05-08T12:45:28.257Z,23.04
2017-05-08T12:46:40.091Z,23.19
2017-05-08T12:47:52.877Z,23.21
2017-05-08T12:49:05.210Z,23.18
2017-05-08T12:50:32.095Z,23.34
2017-05-08T12:51:44.931Z,23.42
2017-05-08T12:52:57.267Z,23.54
2017-05-08T12:54:09.583Z,23.53
2017-05-08T12:55:21.898Z,23.75
2017-05-08T12:56:34.727Z,23.78
2017-05-08T12:57:47.531Z,23.89
2017-05-08T12:59:00.319Z,23.99
2017-05-08T13:00:12.148Z,24.05
2017-05-08T13:01:24.499Z,24.23
2017-05-08T13:02:37.322Z,24.29
2017-05-08T13:03:50.113Z,24.16
2017-05-08T13:05:02.900Z,24.19
2017-05-08T13:06:14.724Z,24.24
2017-05-08T13:07:27.035Z,24.16
2017-05-08T13:08:38.862Z,24.16
2017-05-08T13:09:51.646Z,24.29
2017-05-08T13:11:03.952Z,24.26
2017-05-08T13:12:16.256Z,24.08
2017-05-08T13:13:29.044Z,24.15
2017-05-08T13:14:41.825Z,24.11
2017-05-08T13:15:54.609Z,24.15
2017-05-08T13:17:07.397Z,24.18
2017-05-08T13:18:20.199Z,24.08
2017-05-08T13:19:32.502Z,24.05
2017-05-08T13:20:44.808Z,24
2017-05-08T13:21:57.596Z,24.05
2017-05-08T13:23:09.905Z,24.09
2017-05-08T13:24:22.242Z,24.27
2017-05-08T13:25:34.547Z,24.36
2017-05-08T13:26:47.336Z,24.45
2017-05-08T13:28:00.126Z,24.49
2017-05-08T13:29:12.918Z,24.55
2017-05-08T13:30:25.710Z,24.53
2017-05-08T13:31:38.495Z,24.64
2017-05-08T13:32:51.291Z,24.66
2017-05-08T13:34:04.079Z,24.77
2017-05-08T13:35:16.886Z,24.75
2017-05-08T13:36:29.198Z,24.52
2017-05-08T13:37:42.001Z,24.24
2017-05-08T13:38:54.802Z,23.84
2017-05-08T13:40:07.749Z,23.69
2017-05-08T13:41:20.054Z,23.79
2017-05-08T13:42:32.859Z,23.9
2017-05-08T13:43:45.173Z,23.99
2017-05-08T13:44:57.965Z,24.09
2017-05-08T13:46:09.997Z,24.12
2017-05-08T13:47:22.300Z,24.19
2017-05-08T13:48:34.127Z,24.24
2017-05-08T13:49:46.924Z,24.37
2017-05-08T13:50:59.712Z,24.51
2017-05-08T13:52:12.505Z,24.53
2017-05-08T13:53:24.825Z,24.53
2017-05-08T13:54:37.621Z,24.52
2017-05-08T13:55:50.410Z,24.53
2017-05-08T13:57:03.202Z,24.7
2017-05-08T13:58:15.520Z,24.7
2017-05-08T13:59:28.306Z,24.64
2017-05-08T14:00:41.098Z,24.75
2017-05-08T14:01:54.087Z,24.66
2017-05-08T14:03:06.874Z,24.7
2017-05-08T14:04:19.189Z,24.7
2017-05-08T14:05:31.504Z,24.83
2017-05-08T14:06:44.504Z,24.89
2017-05-08T14:07:57.324Z,24.83
2017-05-08T14:09:09.627Z,25.01
2017-05-08T14:10:22.425Z,25.07
2017-05-08T14:11:35.210Z,24.92
2017-05-08T14:12:47.853Z,24.86
2017-05-08T14:13:59.684Z,25.01
2017-05-08T14:15:11.993Z,24.99
2017-05-08T14:16:24.298Z,24.99
2017-05-08T14:17:36.757Z,25.11
2017-05-08T14:18:49.554Z,24.86
2017-05-08T14:20:01.865Z,24.82
2017-05-08T14:21:14.189Z,24.8
2017-05-08T14:22:26.498Z,24.67
2017-05-08T14:23:39.296Z,24.67
2017-05-08T14:24:52.085Z,24.71
2017-05-08T14:26:04.881Z,24.77
2017-05-08T14:27:17.187Z,24.87
2017-05-08T14:28:30.179Z,24.99
2017-05-08T14:29:42.482Z,25.01
2017-05-08T14:30:54.788Z,24.99
2017-05-08T14:32:07.583Z,24.86
2017-05-08T14:33:48.518Z,25.01
2017-05-08T14:35:00.826Z,24.94
2017-05-08T14:36:12.651Z,24.92
2017-05-08T14:37:25.436Z,24.92
2017-05-08T14:38:37.745Z,24.89
2017-05-08T14:39:50.060Z,24.75
2017-05-08T14:41:02.852Z,24.83
2017-05-08T14:42:15.163Z,24.82
2017-05-08T14:43:27.470Z,24.84
2017-05-08T14:44:40.459Z,24.84
2017-05-08T14:45:53.255Z,24.9
2017-05-08T14:47:06.040Z,24.89
2017-05-08T14:48:18.830Z,24.93
2017-05-08T14:49:32.116Z,24.77
2017-05-08T14:50:44.914Z,24.67
2017-05-08T14:51:57.704Z,24.6
2017-05-08T14:53:10.012Z,24.61
2017-05-08T14:54:22.799Z,24.24
2017-05-08T14:55:35.107Z,24.11
2017-05-08T14:56:47.893Z,24.05
2017-05-08T14:58:00.677Z,23.97
2017-05-08T14:59:12.981Z,23.96
2017-05-08T15:00:25.586Z,23.89
2017-05-08T15:01:38.372Z,23.78
2017-05-08T15:02:51.161Z,23.72
2017-05-08T15:04:03.956Z,23.71
2017-05-08T15:05:16.269Z,23.57
2017-05-08T15:06:29.065Z,23.69
2017-05-08T15:07:41.850Z,23.64
2017-05-08T15:08:54.641Z,23.62
2017-05-08T15:10:07.424Z,23.6
2017-05-08T15:11:20.223Z,23.54
2017-05-08T15:12:32.528Z,23.47
2017-05-08T15:13:45.312Z,23.52
2017-05-08T15:14:57.619Z,23.49
2017-05-08T15:16:09.923Z,23.41
2017-05-08T15:17:22.711Z,23.42
2017-05-08T15:18:35.497Z,23.41
2017-05-08T15:19:48.286Z,23.31
2017-05-08T15:21:01.072Z,23.29
2017-05-08T15:22:13.385Z,23.38
2017-05-08T15:23:25.688Z,23.31
2017-05-08T15:24:37.998Z,23
2017-05-08T15:25:50.785Z,23.07
2017-05-08T15:27:03.578Z,23.06
2017-05-08T15:28:16.523Z,22.88
2017-05-08T15:29:29.307Z,22.86
2017-05-08T15:30:41.613Z,22.85
2017-05-08T15:31:54.401Z,22.97
2017-05-08T15:33:07.192Z,22.97
2017-05-08T15:34:19.980Z,23.09
2017-05-08T15:35:32.766Z,23.06
2017-05-08T15:36:44.596Z,23.23
2017-05-08T15:37:56.905Z,23.15